createdAt,value
2019-03-10T00:00:31.113Z,20.01
2019-03-10T00:02:59.542Z,20.00
2019-03-10T00:05:28.018Z,20.00
2019-03-10T00:07:56.526Z,19.99
2019-03-10T00:10:25.011Z,19.99
2019-03-10T00:12:53.525Z,19.99
2019-03-10T00:15:21.945Z,19.98
2019-03-10T00:17:50.437Z,19.98
2019-03-10T00:20:19.587Z,19.98
2019-03-10T00:22:48.008Z,19.98
2019-03-10T00:25:16.489Z,19.96
2019-03-10T00:27:45.012Z,19.97
2019-03-10T00:30:16.429Z,19.99
2019-03-10T00:32:44.985Z,19.98
2019-03-10T00:35:14.069Z,19.97
2019-03-10T00:37:42.535Z,19.98
2019-03-10T00:40:48.213Z,19.97
2019-03-10T00:43:34.866Z,19.96
2019-03-10T00:46:24.766Z,19.97
2019-03-10T00:49:02.003Z,19.97
2019-03-10T00:51:48.620Z,19.97
2019-03-10T00:54:17.053Z,19.96
2019-03-10T00:56:45.469Z,19.96
2019-03-10T00:59:13.915Z,19.96
2019-03-10T01:01:42.332Z,19.97
2019-03-10T01:04:10.899Z,19.96
2019-03-10T01:06:39.438Z,19.97
2019-03-10T01:09:07.845Z,19.97
2019-03-10T01:11:36.513Z,19.98
2019-03-10T01:14:04.993Z,19.99
2019-03-10T01:16:34.045Z,19.98
2019-03-10T01:19:03.299Z,19.97
2019-03-10T01:21:34.378Z,19.97
2019-03-10T01:24:02.790Z,19.98
2019-03-10T01:26:31.213Z,19.97
2019-03-10T01:28:59.660Z,19.98
2019-03-10T01:31:31.124Z,19.98
2019-03-10T01:34:05.483Z,19.99
2019-03-10T01:36:32.736Z,19.99
2019-03-10T01:39:01.193Z,19.98
2019-03-10T01:41:29.609Z,19.98
2019-03-10T01:43:58.070Z,19.97
2019-03-10T01:46:26.494Z,19.96
2019-03-10T01:48:54.954Z,19.97
2019-03-10T01:51:23.366Z,19.96
2019-03-10T01:53:51.773Z,19.96
2019-03-10T01:56:20.218Z,19.95
2019-03-10T01:58:48.647Z,19.95
2019-03-10T02:01:17.059Z,19.96
2019-03-10T02:03:45.500Z,19.97
2019-03-10T02:06:13.920Z,19.96
2019-03-10T02:08:42.360Z,19.95
2019-03-10T02:11:10.789Z,19.95
2019-03-10T02:13:39.263Z,19.97
2019-03-10T02:16:07.936Z,19.94
2019-03-10T02:18:36.365Z,19.95
2019-03-10T02:21:04.871Z,19.94
2019-03-10T02:23:33.304Z,19.95
2019-03-10T02:26:01.742Z,19.94
2019-03-10T02:28:30.180Z,19.94
2019-03-10T02:30:58.603Z,19.92
2019-03-10T02:33:27.019Z,19.94
2019-03-10T02:35:55.450Z,19.93
2019-03-10T02:38:23.871Z,19.92
2019-03-10T02:40:52.300Z,19.92
2019-03-10T02:43:20.775Z,19.92
2019-03-10T02:45:49.256Z,19.91
2019-03-10T02:48:17.664Z,19.91
2019-03-10T02:50:46.130Z,19.91
2019-03-10T02:53:14.575Z,19.90
2019-03-10T02:55:43.082Z,19.90
2019-03-10T02:58:11.518Z,19.90
2019-03-10T03:00:39.963Z,19.90
2019-03-10T03:03:08.363Z,19.90
2019-03-10T03:05:36.801Z,19.91
2019-03-10T03:08:05.230Z,19.90
2019-03-10T03:10:33.630Z,19.90
2019-03-10T03:13:02.228Z,19.89
2019-03-10T03:15:30.660Z,19.90
2019-03-10T03:17:59.200Z,19.90
2019-03-10T03:20:27.597Z,19.90
2019-03-10T03:22:56.000Z,19.89
2019-03-10T03:25:24.610Z,19.89
2019-03-10T03:27:53.053Z,19.88
2019-03-10T03:30:21.737Z,19.88
2019-03-10T03:32:50.198Z,19.88
2019-03-10T03:35:44.351Z,19.89
2019-03-10T03:38:12.788Z,19.89
2019-03-10T03:40:44.247Z,19.88
2019-03-10T03:43:12.658Z,19.89
2019-03-10T03:45:41.078Z,19.88
2019-03-10T03:48:09.494Z,19.88
2019-03-10T03:50:37.918Z,19.88
2019-03-10T03:53:06.344Z,19.88
2019-03-10T03:55:34.803Z,19.86
2019-03-10T03:58:03.220Z,19.85
2019-03-10T04:00:31.635Z,19.87
2019-03-10T04:03:00.078Z,19.86
2019-03-10T04:05:28.520Z,19.86
2019-03-10T04:07:56.949Z,19.86
2019-03-10T04:10:25.389Z,19.84
2019-03-10T04:12:53.805Z,19.84
2019-03-10T04:15:22.210Z,19.83
2019-03-10T04:17:50.639Z,19.80
2019-03-10T04:20:19.136Z,19.79
2019-03-10T04:22:47.562Z,19.79
2019-03-10T04:25:15.972Z,19.81
2019-03-10T04:27:44.418Z,19.81
2019-03-10T04:30:13.490Z,19.79
2019-03-10T04:32:41.908Z,19.77
2019-03-10T04:35:10.336Z,19.76
2019-03-10T04:37:38.761Z,19.76
2019-03-10T04:40:07.421Z,19.76
2019-03-10T04:42:35.826Z,19.74
2019-03-10T04:45:06.096Z,19.73
2019-03-10T04:47:34.526Z,19.73
2019-03-10T04:50:02.956Z,19.72
2019-03-10T04:52:31.359Z,19.70
2019-03-10T04:55:04.348Z,19.68
2019-03-10T04:57:32.750Z,19.70
2019-03-10T05:00:01.172Z,19.68
2019-03-10T05:02:29.572Z,19.67
2019-03-10T05:04:58.018Z,19.66
2019-03-10T05:07:26.427Z,19.65
2019-03-10T05:09:54.839Z,19.64
2019-03-10T05:12:23.277Z,19.63
2019-03-10T05:14:51.680Z,19.62
2019-03-10T05:17:20.089Z,19.60
2019-03-10T05:19:48.517Z,19.58
2019-03-10T05:22:16.949Z,19.57
2019-03-10T05:24:45.397Z,19.56
2019-03-10T05:27:13.820Z,19.55
2019-03-10T05:29:42.231Z,19.54
2019-03-10T05:32:10.663Z,19.56
2019-03-10T05:34:39.059Z,19.55
2019-03-10T05:37:07.480Z,19.54
2019-03-10T05:39:35.880Z,19.54
2019-03-10T05:42:04.307Z,19.54
2019-03-10T05:44:32.742Z,19.52
2019-03-10T05:47:01.177Z,19.53
2019-03-10T05:49:29.577Z,19.53
2019-03-10T05:51:58.001Z,19.53
2019-03-10T05:54:26.411Z,19.53
2019-03-10T05:56:54.866Z,19.53
2019-03-10T05:59:23.306Z,19.52
2019-03-10T06:01:51.718Z,19.50
2019-03-10T06:04:20.145Z,19.50
2019-03-10T06:06:48.585Z,19.49
2019-03-10T06:09:16.989Z,19.49
2019-03-10T06:11:45.384Z,19.49
2019-03-10T06:14:13.831Z,19.48
2019-03-10T06:16:42.267Z,19.48
2019-03-10T06:19:10.706Z,19.48
2019-03-10T06:21:39.137Z,19.50
2019-03-10T06:24:07.559Z,19.50
2019-03-10T06:26:36.002Z,19.50
2019-03-10T06:29:04.461Z,19.49
2019-03-10T06:31:32.827Z,19.48
2019-03-10T06:34:01.271Z,19.47
2019-03-10T06:36:29.683Z,19.48
2019-03-10T06:38:58.110Z,19.49
2019-03-10T06:41:26.525Z,19.49
2019-03-10T06:43:54.951Z,19.47
2019-03-10T06:46:23.361Z,19.48
2019-03-10T06:48:51.801Z,19.48
2019-03-10T06:51:20.231Z,19.47
2019-03-10T06:53:48.627Z,19.48
2019-03-10T06:56:17.091Z,19.47
2019-03-10T06:58:45.511Z,19.46
2019-03-10T07:01:13.952Z,19.45
2019-03-10T07:03:42.358Z,19.45
2019-03-10T07:06:10.762Z,19.45
2019-03-10T07:08:39.185Z,19.45
2019-03-10T07:11:07.623Z,19.46
2019-03-10T07:13:36.030Z,19.45
2019-03-10T07:16:04.471Z,19.45
2019-03-10T07:18:32.909Z,19.46
2019-03-10T07:21:01.323Z,19.48
2019-03-10T07:23:29.726Z,19.48
2019-03-10T07:26:07.150Z,19.48
2019-03-10T07:28:43.757Z,19.49
2019-03-10T07:31:13.811Z,19.49
2019-03-10T07:33:43.843Z,19.50
2019-03-10T07:36:19.725Z,19.49
2019-03-10T07:38:58.489Z,19.50
2019-03-10T07:41:34.385Z,19.50
2019-03-10T07:44:10.543Z,19.52
2019-03-10T07:46:49.319Z,19.52
2019-03-10T07:49:34.404Z,19.51
2019-03-10T07:52:04.480Z,19.51
2019-03-10T07:54:52.579Z,19.52
2019-03-10T07:57:31.656Z,19.52
2019-03-10T08:00:17.864Z,19.51
2019-03-10T08:02:47.925Z,19.52
2019-03-10T08:05:34.094Z,19.51
2019-03-10T08:08:19.213Z,19.53
2019-03-10T08:10:55.162Z,19.54
2019-03-10T08:13:27.653Z,19.54
2019-03-10T08:15:57.708Z,19.54
2019-03-10T08:18:33.812Z,19.53
2019-03-10T08:21:09.882Z,19.53
2019-03-10T08:23:49.072Z,19.55
2019-03-10T08:26:27.879Z,19.57
2019-03-10T08:28:57.952Z,19.57
2019-03-10T08:31:39.942Z,19.60
2019-03-10T08:34:12.967Z,19.63
2019-03-10T08:36:45.992Z,19.61
2019-03-10T08:39:33.970Z,19.62
2019-03-10T08:42:20.450Z,19.63
2019-03-10T08:44:56.944Z,19.63
2019-03-10T08:47:29.686Z,19.65
2019-03-10T08:49:59.746Z,19.65
2019-03-10T08:52:38.597Z,19.66
2019-03-10T08:55:26.224Z,19.67
2019-03-10T08:57:56.300Z,19.68
2019-03-10T09:00:41.716Z,19.67
2019-03-10T09:03:17.534Z,19.69
2019-03-10T09:05:59.638Z,19.71
2019-03-10T09:08:41.856Z,19.73
2019-03-10T09:11:11.916Z,19.75
2019-03-10T09:13:44.784Z,19.80
2019-03-10T09:16:23.826Z,19.85
2019-03-10T09:19:09.247Z,19.92
2019-03-10T09:21:39.293Z,19.97
2019-03-10T09:24:09.375Z,20.05
2019-03-10T09:26:45.106Z,20.13
2019-03-10T09:29:18.118Z,20.19
2019-03-10T09:31:54.126Z,20.27
2019-03-10T09:34:24.232Z,20.31
2019-03-10T09:36:59.810Z,20.37
2019-03-10T09:39:29.894Z,20.40
2019-03-10T09:42:12.230Z,20.44
2019-03-10T09:44:57.575Z,20.45
2019-03-10T09:47:42.539Z,20.45
2019-03-10T09:50:12.721Z,20.44
2019-03-10T09:52:48.462Z,20.45
2019-03-10T09:55:27.598Z,20.48
2019-03-10T09:58:03.286Z,20.53
2019-03-10T10:00:49.339Z,20.61
2019-03-10T10:03:36.000Z,20.67
2019-03-10T10:06:06.072Z,20.73
2019-03-10T10:08:36.150Z,20.76
2019-03-10T10:11:15.444Z,20.75
2019-03-10T10:13:45.530Z,20.75
2019-03-10T10:16:21.190Z,20.75
2019-03-10T10:18:51.253Z,20.74
2019-03-10T10:21:23.852Z,20.72
2019-03-10T10:23:53.918Z,20.71
2019-03-10T10:26:29.688Z,20.71
2019-03-10T10:29:08.922Z,20.71
2019-03-10T10:31:39.000Z,20.70
2019-03-10T10:34:09.098Z,20.69
2019-03-10T10:36:39.187Z,20.68
2019-03-10T10:39:26.646Z,20.67
2019-03-10T10:41:59.203Z,20.68
2019-03-10T10:44:34.978Z,20.73
2019-03-10T10:47:13.964Z,20.79
2019-03-10T10:49:49.891Z,20.83
2019-03-10T10:52:26.117Z,20.88
2019-03-10T10:54:56.214Z,20.93
2019-03-10T10:57:34.930Z,20.91
2019-03-10T11:00:06.478Z,20.92
2019-03-10T11:02:39.597Z,20.95
2019-03-10T11:05:28.525Z,20.98
2019-03-10T11:08:04.431Z,21.01
2019-03-10T11:10:43.537Z,21.05
2019-03-10T11:13:16.359Z,21.10
2019-03-10T11:15:58.428Z,21.13
2019-03-10T11:18:40.827Z,21.18
2019-03-10T11:21:17.150Z,21.23
2019-03-10T11:23:53.153Z,21.30
2019-03-10T11:26:32.689Z,21.37
2019-03-10T11:29:03.931Z,21.42
2019-03-10T11:31:34.196Z,21.45
2019-03-10T11:34:22.321Z,21.43
2019-03-10T11:37:01.264Z,21.41
2019-03-10T11:39:46.691Z,21.40
2019-03-10T11:42:34.923Z,21.44
2019-03-10T11:45:08.095Z,21.65
2019-03-10T11:47:46.885Z,21.98
2019-03-10T11:50:28.882Z,22.28
2019-03-10T11:53:19.168Z,22.50
2019-03-10T11:55:43.000Z,22.58
2019-03-10T11:58:13.128Z,22.60
2019-03-10T12:00:48.582Z,22.63
2019-03-10T12:03:36.741Z,22.78
2019-03-10T12:06:06.793Z,22.99
2019-03-10T12:08:40.080Z,23.31
2019-03-10T12:11:08.578Z,23.56
2019-03-10T12:13:37.010Z,23.81
2019-03-10T12:16:05.443Z,24.03
2019-03-10T12:18:33.853Z,24.22
2019-03-10T12:21:02.280Z,24.39
2019-03-10T12:23:30.755Z,24.56
2019-03-10T12:25:59.197Z,24.69
2019-03-10T12:28:27.649Z,24.82
2019-03-10T12:30:56.075Z,24.94
2019-03-10T12:33:24.480Z,25.05
2019-03-10T12:35:52.906Z,25.15
2019-03-10T12:38:21.328Z,25.24
2019-03-10T12:40:49.774Z,25.34
2019-03-10T12:43:18.181Z,25.42
2019-03-10T12:45:46.626Z,25.50
2019-03-10T12:48:15.061Z,25.58
2019-03-10T12:50:43.474Z,25.62
2019-03-10T12:53:11.921Z,25.66
2019-03-10T12:55:40.368Z,25.73
2019-03-10T12:58:08.811Z,25.77
2019-03-10T13:00:37.228Z,25.81
2019-03-10T13:03:05.689Z,25.85
2019-03-10T13:05:34.176Z,25.89
2019-03-10T13:08:02.591Z,25.92
2019-03-10T13:10:31.031Z,25.94
2019-03-10T13:12:59.453Z,25.98
2019-03-10T13:15:27.856Z,26.01
2019-03-10T13:17:56.278Z,26.01
2019-03-10T13:20:28.418Z,26.04
2019-03-10T13:22:54.862Z,26.05
2019-03-10T13:25:23.289Z,26.09
2019-03-10T13:27:51.784Z,26.09
2019-03-10T13:30:20.273Z,26.11
2019-03-10T13:32:48.707Z,26.07
2019-03-10T13:35:17.165Z,26.04
2019-03-10T13:37:45.589Z,26.05
2019-03-10T13:40:15.337Z,26.03
2019-03-10T13:42:43.743Z,25.95
2019-03-10T13:45:14.228Z,25.87
2019-03-10T13:47:42.639Z,25.76
2019-03-10T13:50:13.333Z,25.63
2019-03-10T13:52:41.838Z,25.38
2019-03-10T13:55:10.603Z,25.13
2019-03-10T13:57:39.086Z,24.86
2019-03-10T14:00:27.146Z,24.64
2019-03-10T14:02:55.573Z,24.45
2019-03-10T14:05:24.176Z,24.27
2019-03-10T14:07:52.662Z,24.14
2019-03-10T14:10:21.114Z,24.02
2019-03-10T14:12:49.598Z,23.90
2019-03-10T14:15:18.286Z,23.81
2019-03-10T14:17:46.748Z,23.73
2019-03-10T14:20:16.214Z,23.65
2019-03-10T14:22:44.650Z,23.58
2019-03-10T14:25:15.401Z,23.52
2019-03-10T14:27:44.042Z,23.46
2019-03-10T14:30:17.700Z,23.40
2019-03-10T14:32:46.102Z,23.34
2019-03-10T14:35:15.190Z,23.29
2019-03-10T14:37:43.617Z,23.23
2019-03-10T14:40:14.851Z,23.18
2019-03-10T14:42:43.258Z,23.13
2019-03-10T14:47:51.000Z,23.07
2019-03-10T14:50:20.174Z,22.98
2019-03-10T14:52:48.580Z,22.93
2019-03-10T14:55:18.869Z,22.89
2019-03-10T14:57:47.314Z,22.86
2019-03-10T15:00:24.238Z,22.81
2019-03-10T15:02:52.791Z,22.76
2019-03-10T15:05:21.358Z,22.70
2019-03-10T15:07:49.827Z,22.68
2019-03-10T15:10:18.272Z,22.64
2019-03-10T15:12:46.807Z,22.61
2019-03-10T15:15:23.284Z,22.57
2019-03-10T15:17:51.801Z,22.53
2019-03-10T15:20:21.647Z,22.48
2019-03-10T15:22:50.401Z,22.43
2019-03-10T15:25:20.983Z,22.40
2019-03-10T15:27:49.567Z,22.36
2019-03-10T15:30:22.301Z,22.33
2019-03-10T15:32:50.744Z,22.31
2019-03-10T15:35:19.143Z,22.27
2019-03-10T15:37:47.610Z,22.23
2019-03-10T15:40:18.042Z,22.20
2019-03-10T15:42:47.030Z,22.16
2019-03-10T15:45:16.577Z,22.14
2019-03-10T15:47:45.117Z,22.12
2019-03-10T15:50:19.406Z,22.10
2019-03-10T15:52:47.991Z,22.08
2019-03-10T15:55:16.420Z,22.06
2019-03-10T15:57:50.083Z,22.02
2019-03-10T16:00:17.421Z,21.99
2019-03-10T16:02:45.844Z,21.94
2019-03-10T16:05:14.415Z,21.94
2019-03-10T16:07:42.901Z,21.91
2019-03-10T16:10:13.281Z,21.87
2019-03-10T16:12:41.690Z,21.83
2019-03-10T16:15:15.126Z,21.82
2019-03-10T16:17:45.818Z,21.79
2019-03-10T16:20:14.810Z,21.76
2019-03-10T16:22:43.246Z,21.72
2019-03-10T16:25:13.283Z,21.70
2019-03-10T16:27:41.779Z,21.65
2019-03-10T16:30:16.208Z,21.61
2019-03-10T16:32:44.643Z,21.56
2019-03-10T16:35:13.207Z,21.51
2019-03-10T16:37:41.705Z,21.48
2019-03-10T16:40:16.070Z,21.44
2019-03-10T16:42:44.734Z,21.38
2019-03-10T16:45:20.254Z,21.35
2019-03-10T16:47:48.800Z,21.31
2019-03-10T16:50:23.009Z,21.26
2019-03-10T16:52:51.528Z,21.25
2019-03-10T16:55:20.123Z,21.19
2019-03-10T16:57:48.548Z,21.16
2019-03-10T17:00:19.646Z,21.13
2019-03-10T17:02:48.252Z,21.10
2019-03-10T17:05:20.584Z,21.05
2019-03-10T17:07:49.193Z,21.02
2019-03-10T17:10:28.118Z,20.99
2019-03-10T17:12:56.696Z,20.95
2019-03-10T17:15:25.930Z,20.93
2019-03-10T17:17:54.536Z,20.89
2019-03-10T17:20:23.022Z,20.86
2019-03-10T17:22:51.516Z,20.82
2019-03-10T17:25:19.902Z,20.80
2019-03-10T17:27:48.568Z,20.77
2019-03-10T17:30:23.491Z,20.75
2019-03-10T17:32:52.102Z,20.72
2019-03-10T17:35:21.088Z,20.71
2019-03-10T17:37:49.757Z,20.68
2019-03-10T17:40:19.224Z,20.65
2019-03-10T17:42:47.703Z,20.63
2019-03-10T17:45:17.900Z,20.61
2019-03-10T17:47:46.469Z,20.59
2019-03-10T17:50:16.351Z,20.55
2019-03-10T17:52:44.852Z,20.55
2019-03-10T17:55:15.596Z,20.52
2019-03-10T17:57:44.104Z,20.51
2019-03-10T18:00:37.258Z,20.48
2019-03-10T18:03:05.737Z,20.47
2019-03-10T18:05:34.166Z,20.48
2019-03-10T18:08:02.595Z,20.48
2019-03-10T18:10:31.004Z,20.45
2019-03-10T18:12:59.429Z,20.45
2019-03-10T18:15:27.887Z,20.43
2019-03-10T18:17:56.306Z,20.43
2019-03-10T18:20:25.109Z,20.40
2019-03-10T18:22:53.538Z,20.39
2019-03-10T18:25:21.982Z,20.40
2019-03-10T18:27:50.483Z,20.38
2019-03-10T18:30:19.805Z,20.38
2019-03-10T18:32:48.590Z,20.37
2019-03-10T18:35:17.034Z,20.35
2019-03-10T18:37:45.525Z,20.34
2019-03-10T18:40:19.631Z,20.33
2019-03-10T18:42:48.110Z,20.31
2019-03-10T18:45:18.187Z,20.30
2019-03-10T18:47:46.623Z,20.28
2019-03-10T18:50:17.571Z,20.26
2019-03-10T18:52:46.087Z,20.24
2019-03-10T18:55:16.346Z,20.22
2019-03-10T18:57:44.821Z,20.21
2019-03-10T19:00:24.111Z,20.21
2019-03-10T19:02:52.636Z,20.19
2019-03-10T19:05:21.118Z,20.16
2019-03-10T19:07:49.692Z,20.14
2019-03-10T19:10:18.215Z,20.14
2019-03-10T19:12:46.633Z,20.13
2019-03-10T19:15:18.098Z,20.13
2019-03-10T19:17:46.537Z,20.12
2019-03-10T19:20:15.601Z,20.11
2019-03-10T19:22:44.169Z,20.10
2019-03-10T19:25:16.836Z,20.09
2019-03-10T19:27:45.520Z,20.07
2019-03-10T19:30:16.985Z,20.04
2019-03-10T19:32:45.458Z,20.06
2019-03-10T19:35:14.045Z,20.04
2019-03-10T19:37:42.586Z,20.04
2019-03-10T19:40:14.083Z,20.05
2019-03-10T19:42:42.531Z,20.06
2019-03-10T19:45:16.605Z,20.07
2019-03-10T19:47:45.045Z,20.06
2019-03-10T19:50:16.249Z,20.03
2019-03-10T19:52:44.667Z,20.04
2019-03-10T19:55:14.649Z,20.03
2019-03-10T19:57:43.061Z,20.02
2019-03-10T20:00:19.558Z,19.99
2019-03-10T20:02:48.044Z,19.98
2019-03-10T20:05:16.667Z,19.96
2019-03-10T20:07:45.600Z,19.97
2019-03-10T20:10:25.967Z,19.97
2019-03-10T20:12:54.499Z,19.98
2019-03-10T20:15:26.121Z,20.00
2019-03-10T20:17:54.637Z,19.99
2019-03-10T20:20:25.576Z,19.96
2019-03-10T20:22:53.991Z,19.95
2019-03-10T20:25:22.442Z,19.95
2019-03-10T20:27:50.878Z,19.96
2019-03-10T20:30:23.563Z,19.96
2019-03-10T20:32:52.009Z,19.94
2019-03-10T20:35:20.469Z,19.92
2019-03-10T20:37:48.888Z,19.89
2019-03-10T20:40:19.527Z,19.88
2019-03-10T20:42:47.966Z,19.85
2019-03-10T20:45:16.637Z,19.84
2019-03-10T20:47:45.115Z,19.83
2019-03-10T20:50:15.406Z,19.81
2019-03-10T20:52:43.816Z,19.78
2019-03-10T20:55:13.070Z,19.77
2019-03-10T20:57:41.526Z,19.74
2019-03-10T21:00:21.481Z,19.73
2019-03-10T21:02:49.911Z,19.72
2019-03-10T21:05:18.317Z,19.70
2019-03-10T21:07:46.938Z,19.70
2019-03-10T21:10:17.643Z,19.68
2019-03-10T21:12:46.098Z,19.67
2019-03-10T21:15:18.603Z,19.65
2019-03-10T21:17:47.198Z,19.65
2019-03-10T21:20:17.375Z,19.64
2019-03-10T21:22:46.062Z,19.63
2019-03-10T21:25:21.791Z,19.60
2019-03-10T21:27:50.235Z,19.61
2019-03-10T21:30:20.684Z,19.60
2019-03-10T21:32:49.105Z,19.58
2019-03-10T21:35:18.337Z,19.58
2019-03-10T21:37:46.905Z,19.57
2019-03-10T21:40:26.357Z,19.55
2019-03-10T21:42:54.773Z,19.54
2019-03-10T21:45:23.196Z,19.54
2019-03-10T21:47:51.626Z,19.54
2019-03-10T21:50:20.127Z,19.51
2019-03-10T21:52:48.586Z,19.52
2019-03-10T21:55:17.837Z,19.50
2019-03-10T21:57:46.297Z,19.49
2019-03-10T22:00:16.815Z,19.49
2019-03-10T22:02:45.252Z,19.47
2019-03-10T22:05:14.896Z,19.46
2019-03-10T22:07:43.317Z,19.45
2019-03-10T22:10:26.280Z,19.45
2019-03-10T22:12:47.457Z,19.46
2019-03-10T22:15:16.937Z,19.43
2019-03-10T22:17:45.425Z,19.42
2019-03-10T22:20:15.964Z,19.43
2019-03-10T22:22:49.339Z,19.41
2019-03-10T22:25:15.200Z,19.38
2019-03-10T22:27:45.801Z,19.39
2019-03-10T22:30:19.232Z,19.40
2019-03-10T22:32:47.660Z,19.39
2019-03-10T22:35:16.347Z,19.39
2019-03-10T22:37:44.957Z,19.39
2019-03-10T22:40:15.664Z,19.34
2019-03-10T22:42:44.069Z,19.36
2019-03-10T22:45:20.111Z,19.36
2019-03-10T22:47:48.617Z,19.36
2019-03-10T22:50:17.456Z,19.36
2019-03-10T22:52:46.982Z,19.34
2019-03-10T22:55:16.158Z,19.31
2019-03-10T22:57:44.569Z,19.32
2019-03-10T23:00:18.182Z,19.30
2019-03-10T23:02:46.615Z,19.29
2019-03-10T23:05:15.207Z,19.30
2019-03-10T23:07:43.685Z,19.29
2019-03-10T23:10:14.229Z,19.27
2019-03-10T23:12:42.839Z,19.26
2019-03-10T23:15:13.100Z,19.27
2019-03-10T23:17:41.604Z,19.28
2019-03-10T23:20:16.617Z,19.27
2019-03-10T23:22:45.138Z,19.25
2019-03-10T23:25:13.875Z,19.25
2019-03-10T23:27:42.393Z,19.25
2019-03-10T23:30:16.733Z,19.24
2019-03-10T23:32:45.155Z,19.24
2019-03-10T23:35:13.657Z,19.23
2019-03-10T23:37:42.222Z,19.22
2019-03-10T23:40:15.064Z,19.21
2019-03-10T23:42:43.565Z,19.20
2019-03-10T23:45:18.722Z,19.19
2019-03-10T23:47:47.512Z,19.19
2019-03-10T23:50:17.295Z,19.18
2019-03-10T23:52:45.875Z,19.18
2019-03-10T23:55:14.728Z,19.17
2019-03-10T23:57:43.202Z,19.14
